Portada
METAR-TAF:

METAR-TAF

Aeroports :

Plataforma petroliera

Troll A, Noruega

latitud: 60-38-42N, longitud: 3-43-29E, altitud: 20 m

Observació

L'informe es va fer fa 15 minuts, a les 09:20 UTC
Vent 25 kt del Sud-Oest
Temperatura 15°C
Humitat 82%
Pressió 1011 hPa
Visibilitat 10 km o més

METAR: ENQA 220920Z AUTO 22025KT 9999NDV FEW011/// 15/12 Q1011 W13/S4

Hora: 11:35 (09:35 UTC)


TAF: manca

Observacions i pronòstics meteorològics de més de 4000 aeroports (METAR i TAF).

Les estacions disponibles són els punts grocs i vermells al mapa.

Posi el ratolí al punt desitjat per veure el nom de l'estació.

Feu clic per veure les observacions i els pronòstics meteorològics.

Per canviar el mapa: feu clic els botons verds amb una creu de color negre per apropar; al botó verd amb un guió per allunyar la imatge; o en les fletxes verdes per a mapes adjacents.


METAR-TAF: